Time;durP1;ratioP1;P1;durP2;ratioP2;P2;SDS_P1;SDS_P2;PMS_P1;PMS_P2;Temp;Humidity;BMP_temperature;BMP_pressure;BME280_temperature;BME280_humidity;BME280_pressure;Samples;Min_cycle;Max_cycle;Signal;HPM_P1;HPM_P2
2023/08/01 00:00:08;;;;;;;5.60;3.67;;;19.60;58.00;;;;;;5013820;28;20033;-72
2023/08/01 00:02:33;;;;;;;4.70;3.45;;;19.70;57.10;;;;;;4996206;28;20029;-72
2023/08/01 00:04:59;;;;;;;6.15;3.85;;;19.80;57.40;;;;;;5013564;28;20533;-72
2023/08/01 00:07:27;;;;;;;5.55;3.50;;;19.80;57.30;;;;;;5013760;28;20057;-72
2023/08/01 00:09:53;;;;;;;5.63;3.70;;;19.90;57.00;;;;;;5013664;28;20379;-72
2023/08/01 00:12:18;;;;;;;6.75;3.92;;;20.00;56.20;;;;;;5014088;28;20032;-71
2023/08/01 00:14:44;;;;;;;5.25;3.78;;;20.10;55.30;;;;;;5013295;28;20487;-72
2023/08/01 00:17:10;;;;;;;4.72;3.22;;;20.10;55.40;;;;;;5013399;28;20422;-72
2023/08/01 00:19:35;;;;;;;5.78;3.67;;;20.10;54.60;;;;;;5013658;28;20026;-72
2023/08/01 00:22:01;;;;;;;5.88;3.80;;;20.10;55.00;;;;;;5013600;28;20036;-72
2023/08/01 00:24:26;;;;;;;6.28;3.90;;;20.10;55.20;;;;;;5013615;28;20099;-72
2023/08/01 00:26:55;;;;;;;6.07;4.13;;;20.10;55.30;;;;;;5013508;28;20108;-72
2023/08/01 00:29:20;;;;;;;6.47;3.95;;;20.10;55.60;;;;;;5013396;28;20033;-72
2023/08/01 00:31:46;;;;;;;7.93;3.45;;;20.10;55.50;;;;;;5013445;28;20026;-72
2023/08/01 00:34:11;;;;;;;4.18;3.50;;;20.10;55.80;;;;;;4996275;28;20029;-72
2023/08/01 00:36:37;;;;;;;7.25;3.60;;;20.10;55.80;;;;;;5013443;28;20018;-72
2023/08/01 00:39:02;;;;;;;6.88;4.05;;;20.10;55.50;;;;;;5013446;28;20029;-72
2023/08/01 00:41:28;;;;;;;5.57;3.70;;;20.20;55.70;;;;;;5013300;28;20037;-71
2023/08/01 00:43:53;;;;;;;5.93;3.80;;;20.10;55.80;;;;;;5013278;28;20033;-71
2023/08/01 00:46:19;;;;;;;8.50;3.70;;;20.10;55.60;;;;;;5013322;28;20026;-71
2023/08/01 00:48:45;;;;;;;6.28;4.10;;;20.10;56.00;;;;;;5013254;28;20040;-71
2023/08/01 00:51:12;;;;;;;7.00;3.70;;;20.10;56.00;;;;;;5013248;28;20473;-70
2023/08/01 00:53:38;;;;;;;6.97;3.95;;;20.10;56.00;;;;;;5013132;28;20026;-70
2023/08/01 00:56:04;;;;;;;4.93;3.60;;;20.10;55.80;;;;;;5013157;28;20097;-71
2023/08/01 00:58:30;;;;;;;5.60;3.65;;;20.20;56.10;;;;;;5012994;28;20022;-71
2023/08/01 01:00:56;;;;;;;4.65;3.22;;;20.10;56.00;;;;;;5013064;28;20163;-71
2023/08/01 01:03:22;;;;;;;7.00;4.10;;;20.10;56.00;;;;;;5008852;28;20038;-72
2023/08/01 01:06:07;;;;;;;7.50;3.80;;;20.10;56.10;;;;;;4993438;28;20107;-72
2023/08/01 01:08:32;;;;;;;5.75;3.85;;;20.10;56.40;;;;;;4993371;28;20027;-72
2023/08/01 01:10:58;;;;;;;5.10;3.75;;;20.10;56.70;;;;;;4993467;28;20027;-72
2023/08/01 01:13:23;;;;;;;6.22;3.90;;;20.10;56.40;;;;;;4993404;28;20479;-72
2023/08/01 01:15:49;;;;;;;6.88;4.20;;;20.00;56.40;;;;;;4993359;28;20027;-71
2023/08/01 01:18:14;;;;;;;5.82;3.80;;;20.00;56.70;;;;;;4993265;28;20031;-72
2023/08/01 01:20:40;;;;;;;5.60;3.90;;;20.00;56.80;;;;;;4993213;28;20054;-72
2023/08/01 01:23:07;;;;;;;6.40;3.80;;;20.00;56.90;;;;;;4993232;28;20026;-71
2023/08/01 01:25:34;;;;;;;5.55;3.63;;;19.90;58.00;;;;;;4993208;28;20065;-71
2023/08/01 01:28:03;;;;;;;9.63;4.15;;;19.90;57.80;;;;;;4993047;28;20023;-71
2023/08/01 01:30:29;;;;;;;6.90;3.63;;;19.90;59.40;;;;;;4993223;28;20125;-71
2023/08/01 01:32:55;;;;;;;5.43;3.42;;;19.70;62.10;;;;;;4993798;28;20054;-71
2023/08/01 01:35:21;;;;;;;5.32;3.60;;;19.50;63.00;;;;;;4993958;28;20070;-71
2023/08/01 01:37:46;;;;;;;6.75;3.95;;;19.30;64.10;;;;;;4998934;28;20022;-71
2023/08/01 01:40:12;;;;;;;6.63;3.75;;;19.20;64.50;;;;;;4997347;28;20053;-72
2023/08/01 01:42:37;;;;;;;6.15;4.00;;;19.10;65.30;;;;;;4996933;28;20023;-71
2023/08/01 01:45:03;;;;;;;6.53;4.05;;;19.00;67.80;;;;;;4996917;28;20146;-71
2023/08/01 01:47:29;;;;;;;6.18;4.28;;;18.80;67.00;;;;;;4996505;28;20026;-72
2023/08/01 01:49:54;;;;;;;8.70;4.32;;;18.80;67.40;;;;;;4996741;28;20037;-72
2023/08/01 01:52:20;;;;;;;6.82;4.18;;;18.80;67.60;;;;;;4996722;28;20031;-72
2023/08/01 01:54:45;;;;;;;10.55;4.43;;;18.80;67.20;;;;;;4996707;28;20383;-72
2023/08/01 01:57:11;;;;;;;4.75;3.40;;;18.70;67.30;;;;;;4996662;28;20030;-72
2023/08/01 01:59:36;;;;;;;5.70;4.25;;;18.80;67.30;;;;;;4996502;28;20073;-72
2023/08/01 02:02:03;;;;;;;5.03;3.78;;;18.70;67.40;;;;;;4996425;28;20030;-72
2023/08/01 02:04:29;;;;;;;7.40;4.15;;;18.80;66.80;;;;;;4996355;28;20053;-72
2023/08/01 02:06:55;;;;;;;5.65;3.72;;;18.80;67.20;;;;;;4996399;28;20026;-72
2023/08/01 02:09:20;;;;;;;6.35;4.00;;;18.80;66.80;;;;;;4996649;28;20027;-72
2023/08/01 02:11:46;;;;;;;7.82;4.47;;;18.90;66.80;;;;;;4996285;28;20053;-72
2023/08/01 02:14:11;;;;;;;8.60;4.22;;;18.90;67.00;;;;;;4996272;28;20471;-72
2023/08/01 02:16:37;;;;;;;5.20;3.83;;;18.90;66.70;;;;;;4996370;28;20037;-71
2023/08/01 02:19:02;;;;;;;6.00;4.25;;;18.90;65.90;;;;;;4996246;28;20026;-72
2023/08/01 02:21:28;;;;;;;6.97;3.78;;;19.00;65.90;;;;;;4996193;28;20058;-72
2023/08/01 02:23:53;;;;;;;6.78;4.32;;;19.00;65.40;;;;;;4996308;28;20038;-72
2023/08/01 02:26:19;;;;;;;5.80;3.85;;;19.10;64.90;;;;;;4996214;28;20034;-72
2023/08/01 02:28:44;;;;;;;5.57;4.07;;;19.10;64.20;;;;;;4996030;28;20045;-72
2023/08/01 02:31:11;;;;;;;7.80;3.80;;;19.20;63.80;;;;;;4995966;28;20037;-72
2023/08/01 02:33:36;;;;;;;8.32;3.47;;;19.20;63.80;;;;;;4995983;28;20073;-72
2023/08/01 02:36:03;;;;;;;6.85;4.10;;;19.30;63.50;;;;;;4995927;28;20034;-73
2023/08/01 02:38:28;;;;;;;6.03;3.67;;;19.30;63.10;;;;;;4995921;28;20021;-73
2023/08/01 02:40:54;;;;;;;5.88;3.67;;;19.40;63.00;;;;;;4995847;28;20382;-72
2023/08/01 02:43:19;;;;;;;5.45;4.03;;;19.40;63.20;;;;;;4995874;28;20022;-72
2023/08/01 02:45:45;;;;;;;7.07;4.05;;;19.30;62.80;;;;;;4995747;28;20061;-72
2023/08/01 02:48:11;;;;;;;8.13;4.57;;;19.30;63.00;;;;;;4994528;28;20510;-72
2023/08/01 02:50:36;;;;;;;5.57;3.72;;;19.30;63.00;;;;;;4995797;28;20065;-72
2023/08/01 02:53:04;;;;;;;5.85;3.60;;;19.30;62.20;;;;;;4995695;28;20030;-72
2023/08/01 02:55:30;;;;;;;7.97;3.70;;;19.30;62.40;;;;;;4995504;28;20101;-72
2023/08/01 02:57:55;;;;;;;6.75;3.83;;;19.40;61.90;;;;;;4978132;28;20105;-72
2023/08/01 03:00:21;;;;;;;6.75;3.85;;;19.30;61.30;;;;;;4995480;28;20050;-72
2023/08/01 03:02:46;;;;;;;7.10;4.03;;;19.40;61.40;;;;;;4995756;28;20022;-72
2023/08/01 03:05:12;;;;;;;7.13;3.78;;;19.40;61.10;;;;;;5014143;28;20054;-72
2023/08/01 03:07:37;;;;;;;8.57;4.00;;;19.40;60.90;;;;;;5014884;28;20528;-72
2023/08/01 03:10:03;;;;;;;7.47;3.78;;;19.40;60.40;;;;;;5015181;28;20030;-73
2023/08/01 03:12:29;;;;;;;7.00;4.00;;;19.30;60.40;;;;;;5014855;28;20374;-72
2023/08/01 03:14:54;;;;;;;7.30;3.60;;;19.30;60.10;;;;;;5014989;28;20037;-72
2023/08/01 03:17:20;;;;;;;6.18;3.55;;;19.30;59.80;;;;;;5014706;28;20431;-72
2023/08/01 03:19:45;;;;;;;5.18;3.53;;;19.30;60.00;;;;;;5014606;28;20494;-72
2023/08/01 03:22:11;;;;;;;6.70;4.15;;;19.30;60.10;;;;;;5014593;28;20478;-72
2023/08/01 03:24:36;;;;;;;8.00;3.70;;;19.30;60.10;;;;;;5014640;28;20096;-72
2023/08/01 03:27:03;;;;;;;8.27;4.60;;;19.30;60.10;;;;;;4997067;28;20544;-72
2023/08/01 03:29:28;;;;;;;7.50;3.38;;;19.30;60.30;;;;;;5014469;28;20028;-72
2023/08/01 03:31:54;;;;;;;6.78;3.97;;;19.30;60.50;;;;;;5014443;28;20025;-72
2023/08/01 03:34:19;;;;;;;8.35;3.83;;;19.30;60.50;;;;;;5014471;28;20053;-72
2023/08/01 03:36:45;;;;;;;6.03;3.22;;;19.30;60.70;;;;;;5014327;28;20034;-72
2023/08/01 03:39:11;;;;;;;7.80;3.85;;;19.20;60.90;;;;;;5014500;28;20117;-72
2023/08/01 03:41:39;;;;;;;7.88;3.63;;;19.30;60.20;;;;;;5014200;28;20037;-73
2023/08/01 03:44:05;;;;;;;6.10;3.42;;;19.30;60.00;;;;;;5014173;28;20029;-72
2023/08/01 03:46:30;;;;;;;6.47;3.30;;;19.30;59.80;;;;;;5014168;28;20026;-72
2023/08/01 03:48:56;;;;;;;9.63;4.07;;;19.30;59.70;;;;;;5014237;28;20030;-74
2023/08/01 03:51:21;;;;;;;8.18;3.90;;;19.30;59.70;;;;;;5014017;28;20109;-75
2023/08/01 03:53:47;;;;;;;5.70;3.72;;;19.30;60.00;;;;;;4997032;28;20053;-75
2023/08/01 03:56:13;;;;;;;5.60;3.80;;;19.30;60.10;;;;;;5032102;28;20465;-73
2023/08/01 03:58:38;;;;;;;7.78;4.13;;;19.30;59.80;;;;;;5016268;28;20365;-75
2023/08/01 04:01:07;;;;;;;8.18;3.70;;;19.30;60.00;;;;;;5033466;28;20037;-75
2023/08/01 04:03:32;;;;;;;7.75;3.90;;;19.20;60.00;;;;;;5033509;28;20041;-72
2023/08/01 04:05:58;;;;;;;7.72;3.50;;;19.20;60.00;;;;;;5033791;28;20075;-73
2023/08/01 04:08:24;;;;;;;6.45;3.85;;;19.20;59.90;;;;;;5015957;28;20184;-74
2023/08/01 04:10:50;;;;;;;9.35;4.03;;;19.20;60.10;;;;;;5033421;28;20105;-73
2023/08/01 04:13:16;;;;;;;6.75;3.90;;;19.20;60.70;;;;;;5033539;28;20022;-73
2023/08/01 04:15:41;;;;;;;7.57;4.10;;;19.20;60.70;;;;;;5032907;28;20021;-73
2023/08/01 04:18:07;;;;;;;7.03;4.07;;;19.10;60.80;;;;;;5033606;28;20079;-73
2023/08/01 04:20:32;;;;;;;6.40;3.95;;;19.10;61.10;;;;;;5033470;28;20123;-73
2023/08/01 04:22:58;;;;;;;10.40;4.53;;;19.10;61.30;;;;;;5033472;28;20381;-74
2023/08/01 04:25:26;;;;;;;7.97;4.28;;;19.00;61.40;;;;;;5033413;28;20509;-73
2023/08/01 04:27:52;;;;;;;6.80;3.85;;;19.00;61.70;;;;;;5033584;28;20069;-73
2023/08/01 04:30:18;;;;;;;7.65;4.88;;;19.00;62.10;;;;;;5033784;28;20096;-74
2023/08/01 04:32:43;;;;;;;7.63;4.63;;;19.00;61.20;;;;;;5029034;28;20018;-73
2023/08/01 04:35:09;;;;;;;6.53;4.07;;;18.90;61.30;;;;;;5022138;28;20463;-73
2023/08/01 04:37:34;;;;;;;9.50;4.63;;;18.90;61.60;;;;;;5004636;28;20017;-73
2023/08/01 04:40:00;;;;;;;8.27;4.93;;;18.90;62.00;;;;;;5005550;28;20025;-73
2023/08/01 04:42:26;;;;;;;9.48;4.82;;;18.90;62.20;;;;;;5021769;28;20355;-73
2023/08/01 04:44:52;;;;;;;5.85;4.03;;;18.80;62.60;;;;;;5005853;28;20049;-73
2023/08/01 04:47:18;;;;;;;8.07;4.75;;;18.80;62.60;;;;;;5023862;28;20656;-73
2023/08/01 04:49:44;;;;;;;10.52;5.05;;;18.80;62.20;;;;;;5021201;28;20026;-73
2023/08/01 04:52:09;;;;;;;8.45;4.68;;;18.80;61.60;;;;;;5021964;28;20548;-73
2023/08/01 04:54:35;;;;;;;7.63;4.53;;;18.80;61.90;;;;;;5010636;28;20025;-73
2023/08/01 04:57:00;;;;;;;6.80;4.80;;;18.80;61.40;;;;;;5015333;28;20030;-73
2023/08/01 04:59:26;;;;;;;8.88;4.57;;;18.80;61.70;;;;;;5014917;28;20028;-73
2023/08/01 05:01:52;;;;;;;7.53;4.60;;;18.80;61.70;;;;;;5032918;28;20537;-74
2023/08/01 05:04:17;;;;;;;6.40;3.92;;;18.80;60.00;;;;;;5032721;28;20041;-73
2023/08/01 05:06:43;;;;;;;6.57;4.10;;;18.80;59.40;;;;;;5032702;28;20390;-73
2023/08/01 05:09:08;;;;;;;4.72;3.60;;;18.80;59.80;;;;;;5032903;28;20018;-73
2023/08/01 05:11:34;;;;;;;6.65;3.65;;;18.80;59.70;;;;;;5033769;28;20466;-73
2023/08/01 05:13:59;;;;;;;6.25;4.03;;;18.80;59.10;;;;;;5037037;28;20057;-73
2023/08/01 05:16:25;;;;;;;5.07;3.35;;;18.80;59.10;;;;;;5036891;28;20091;-72
2023/08/01 05:18:50;;;;;;;4.18;3.00;;;18.80;57.30;;;;;;5036659;28;20049;-73
2023/08/01 05:21:16;;;;;;;4.95;3.60;;;19.00;55.80;;;;;;5037263;28;20116;-73
2023/08/01 05:23:41;;;;;;;6.45;3.95;;;19.00;56.40;;;;;;5036874;28;20100;-73
2023/08/01 05:26:07;;;;;;;5.07;3.78;;;19.00;56.30;;;;;;5018887;28;20112;-72
2023/08/01 05:28:32;;;;;;;6.10;4.30;;;19.00;56.20;;;;;;5037656;28;20029;-74
2023/08/01 05:30:58;;;;;;;7.63;3.95;;;19.10;56.00;;;;;;5036634;28;20079;-73
2023/08/01 05:33:23;;;;;;;5.95;4.50;;;19.10;56.10;;;;;;5036691;28;20021;-73
2023/08/01 05:35:50;;;;;;;7.05;4.05;;;19.10;55.70;;;;;;5036492;28;20021;-73
2023/08/01 05:38:15;;;;;;;5.75;4.43;;;19.20;55.60;;;;;;5036743;28;20056;-72
2023/08/01 05:40:41;;;;;;;9.07;5.07;;;19.20;55.30;;;;;;5018604;28;20061;-73
2023/08/01 05:43:08;;;;;;;10.80;5.88;;;19.30;55.20;;;;;;5036277;28;20026;-73
2023/08/01 05:45:34;;;;;;;8.27;6.03;;;19.30;54.00;;;;;;5036393;28;20057;-73
2023/08/01 05:48:00;;;;;;;7.82;5.20;;;19.40;52.40;;;;;;5036177;28;20048;-73
2023/08/01 05:50:26;;;;;;;9.07;5.50;;;19.60;51.50;;;;;;5018251;28;20091;-73
2023/08/01 05:52:51;;;;;;;8.80;5.70;;;19.60;51.50;;;;;;5036056;28;20018;-74
2023/08/01 05:55:17;;;;;;;7.65;5.43;;;19.50;51.60;;;;;;5036108;28;20025;-74
2023/08/01 05:57:42;;;;;;;6.13;4.97;;;19.60;51.50;;;;;;5036097;28;20088;-73
2023/08/01 06:00:09;;;;;;;8.35;5.65;;;19.60;51.10;;;;;;5036063;28;20041;-73
2023/08/01 06:02:34;;;;;;;7.90;5.93;;;19.60;51.00;;;;;;5018198;28;20045;-73
2023/08/01 06:05:00;;;;;;;7.95;5.70;;;19.60;51.60;;;;;;5018002;28;20517;-73
2023/08/01 06:07:25;;;;;;;6.50;5.00;;;19.50;51.60;;;;;;5036225;28;20025;-75
2023/08/01 06:09:51;;;;;;;6.43;5.22;;;19.50;50.90;;;;;;5037157;28;20409;-73
2023/08/01 06:12:18;;;;;;;7.28;5.35;;;19.60;50.00;;;;;;5035971;28;20021;-72
2023/08/01 06:14:44;;;;;;;7.47;4.93;;;19.50;49.60;;;;;;5018056;28;20435;-74
2023/08/01 06:17:09;;;;;;;8.57;5.53;;;19.50;50.20;;;;;;5035702;28;20104;-73
2023/08/01 06:19:35;;;;;;;10.73;5.00;;;19.40;49.50;;;;;;5035644;28;20108;-73
2023/08/01 06:22:00;;;;;;;6.20;5.00;;;19.40;49.60;;;;;;5035455;28;20076;-74
2023/08/01 06:24:26;;;;;;;8.32;5.38;;;19.40;50.20;;;;;;5035593;28;20091;-73
2023/08/01 06:26:52;;;;;;;9.05;5.35;;;19.30;49.60;;;;;;5035547;28;20037;-74
2023/08/01 06:29:17;;;;;;;9.82;4.82;;;19.20;50.90;;;;;;5035559;28;20021;-75
2023/08/01 06:31:43;;;;;;;7.63;5.47;;;19.10;50.80;;;;;;5035417;28;20104;-74
2023/08/01 06:34:08;;;;;;;9.25;5.28;;;19.00;52.00;;;;;;5035556;28;20018;-76
2023/08/01 06:36:35;;;;;;;10.07;5.43;;;19.00;52.60;;;;;;5025962;28;20036;-74
2023/08/01 06:39:00;;;;;;;9.10;5.82;;;18.90;53.50;;;;;;5024444;28;20042;-77
2023/08/01 06:41:26;;;;;;;8.55;5.90;;;18.80;54.80;;;;;;5024368;28;20052;-76
2023/08/01 06:43:52;;;;;;;9.70;6.10;;;18.60;55.90;;;;;;5016136;28;20600;-75
2023/08/01 06:46:17;;;;;;;9.30;6.03;;;18.50;56.90;;;;;;5035286;28;20068;-76
2023/08/01 06:48:43;;;;;;;12.25;5.75;;;18.40;58.60;;;;;;5035256;28;20109;-76
2023/08/01 06:51:08;;;;;;;11.27;6.22;;;18.30;59.00;;;;;;5035433;28;20036;-75
2023/08/01 06:53:34;;;;;;;8.32;5.40;;;18.40;59.30;;;;;;5035064;28;20017;-75
2023/08/01 06:55:59;;;;;;;9.50;5.28;;;18.30;60.00;;;;;;5035220;28;20106;-75
2023/08/01 06:58:25;;;;;;;8.60;5.15;;;18.30;60.70;;;;;;5034997;28;20019;-75
2023/08/01 07:00:50;;;;;;;8.25;4.85;;;18.20;61.20;;;;;;5017089;28;20115;-75
2023/08/01 07:03:16;;;;;;;7.32;5.38;;;18.20;61.50;;;;;;5035021;28;20191;-75
2023/08/01 07:05:42;;;;;;;6.93;4.80;;;18.30;61.70;;;;;;5034804;28;20030;-72
2023/08/01 07:08:07;;;;;;;6.68;5.05;;;18.20;61.60;;;;;;5034717;28;20025;-76
2023/08/01 07:10:36;;;;;;;7.30;5.38;;;18.30;61.60;;;;;;5035058;28;20034;-82
2023/08/01 07:13:04;;;;;;;6.88;4.75;;;18.20;61.80;;;;;;5035131;28;20021;-74
2023/08/01 07:15:30;;;;;;;9.68;5.25;;;18.20;62.90;;;;;;5034901;28;20052;-74
2023/08/01 07:17:56;;;;;;;9.10;4.78;;;18.20;64.30;;;;;;5016986;28;20108;-74
2023/08/01 07:20:22;;;;;;;7.05;4.72;;;18.10;65.40;;;;;;5034817;28;20033;-81
2023/08/01 07:22:48;;;;;;;7.32;4.85;;;18.00;65.40;;;;;;5034791;28;20033;-78
2023/08/01 07:25:15;;;;;;;7.43;5.18;;;18.10;65.70;;;;;;5017175;28;20025;-72
2023/08/01 07:27:40;;;;;;;7.20;4.53;;;18.00;65.10;;;;;;5034651;28;20100;-73
2023/08/01 07:30:07;;;;;;;6.78;4.95;;;18.10;65.60;;;;;;5034829;28;20097;-75
2023/08/01 07:32:32;;;;;;;6.88;4.93;;;18.10;67.30;;;;;;5037185;28;20033;-74
2023/08/01 07:34:58;;;;;;;6.38;4.90;;;17.90;67.50;;;;;;5033668;28;20546;-73
2023/08/01 07:37:24;;;;;;;6.72;5.07;;;17.90;68.50;;;;;;5034033;28;20032;-75
2023/08/01 07:39:50;;;;;;;5.75;4.63;;;18.00;67.90;;;;;;5034597;28;20022;-77
2023/08/01 07:42:15;;;;;;;7.70;5.10;;;18.10;67.70;;;;;;5016515;28;20033;-77
2023/08/01 07:44:41;;;;;;;6.32;3.92;;;18.10;67.00;;;;;;5016398;28;20033;-77
2023/08/01 07:47:07;;;;;;;5.18;3.80;;;18.20;66.80;;;;;;5034047;28;20036;-77
2023/08/01 07:49:33;;;;;;;5.47;4.00;;;18.40;66.50;;;;;;5034063;28;20025;-73
2023/08/01 07:51:59;;;;;;;5.40;3.28;;;18.40;65.90;;;;;;5034171;28;20087;-75
2023/08/01 07:54:24;;;;;;;7.25;3.75;;;18.40;66.20;;;;;;5033800;28;20108;-74
2023/08/01 07:56:50;;;;;;;4.65;3.33;;;18.50;65.90;;;;;;5033873;28;20029;-73
2023/08/01 07:59:15;;;;;;;4.50;3.10;;;18.60;65.80;;;;;;5033831;28;20045;-77
2023/08/01 08:01:41;;;;;;;3.90;3.22;;;18.60;65.70;;;;;;5016402;28;20029;-73
2023/08/01 08:04:07;;;;;;;3.90;2.70;;;18.60;65.60;;;;;;5016152;28;20405;-74
2023/08/01 08:06:32;;;;;;;3.65;2.80;;;18.60;65.90;;;;;;5033716;28;20389;-74
2023/08/01 08:08:58;;;;;;;3.67;2.70;;;18.40;66.70;;;;;;5033744;28;20079;-74
2023/08/01 08:11:24;;;;;;;7.60;2.88;;;18.30;69.50;;;;;;5033775;28;20365;-73
2023/08/01 08:13:50;;;;;;;5.97;3.33;;;18.20;70.30;;;;;;5015787;28;20071;-72
2023/08/01 08:16:15;;;;;;;3.42;2.80;;;18.00;71.40;;;;;;4999539;28;20461;-74
2023/08/01 08:18:41;;;;;;;6.32;2.75;;;18.00;71.40;;;;;;5033611;28;20025;-76
2023/08/01 08:21:07;;;;;;;4.80;2.97;;;17.90;73.00;;;;;;5033536;28;20443;-76
2023/08/01 08:23:32;;;;;;;4.32;2.67;;;17.80;74.80;;;;;;5033519;28;20036;-77
2023/08/01 08:25:58;;;;;;;4.82;2.50;;;17.60;76.40;;;;;;5033637;28;20083;-75
2023/08/01 08:28:32;;;;;;;4.95;2.88;;;17.40;77.50;;;;;;5033455;28;20096;-76
2023/08/01 08:30:58;;;;;;;4.55;2.85;;;17.20;78.30;;;;;;5015948;28;20061;-77
2023/08/01 08:33:24;;;;;;;2.55;2.30;;;17.10;80.50;;;;;;5033520;28;20025;-76
2023/08/01 08:35:50;;;;;;;3.75;2.28;;;16.90;80.30;;;;;;5033436;28;20026;-75
2023/08/01 08:38:17;;;;;;;4.80;2.75;;;16.90;81.40;;;;;;5033338;28;20026;-77
2023/08/01 08:40:52;;;;;;;4.47;2.20;;;16.80;81.80;;;;;;5033198;28;20037;-74
2023/08/01 08:43:18;;;;;;;3.10;2.08;;;16.80;83.00;;;;;;5033101;28;20029;-74
2023/08/01 08:45:45;;;;;;;3.88;1.88;;;16.80;83.20;;;;;;5033130;28;20094;-75
2023/08/01 08:48:16;;;;;;;2.75;1.35;;;16.80;81.10;;;;;;5015291;28;20025;-76
2023/08/01 08:50:44;;;;;;;2.15;1.38;;;16.80;81.00;;;;;;5033358;28;20051;-75
2023/08/01 08:53:12;;;;;;;1.90;1.17;;;16.80;82.10;;;;;;5033282;28;20036;-75
2023/08/01 08:55:39;;;;;;;4.15;1.80;;;16.90;81.80;;;;;;5035964;28;20485;-73
2023/08/01 08:58:05;;;;;;;3.50;2.13;;;16.80;81.40;;;;;;5032873;28;20355;-75
2023/08/01 09:00:31;;;;;;;2.80;2.13;;;16.80;82.80;;;;;;5032992;28;20033;-76
2023/08/01 09:02:57;;;;;;;3.13;2.22;;;16.90;83.40;;;;;;5032676;28;20057;-73
2023/08/01 09:05:27;;;;;;;2.67;2.35;;;16.90;82.00;;;;;;5032911;28;20494;-75
2023/08/01 09:07:56;;;;;;;4.07;2.40;;;17.00;82.60;;;;;;5032894;28;20104;-77
2023/08/01 09:10:23;;;;;;;3.60;2.13;;;17.00;82.20;;;;;;5032707;28;20033;-75
2023/08/01 09:12:49;;;;;;;2.90;2.33;;;17.10;82.40;;;;;;5032714;28;20033;-76
2023/08/01 09:15:14;;;;;;;4.45;2.35;;;17.20;83.10;;;;;;5014851;28;20030;-74
2023/08/01 09:17:51;;;;;;;2.75;2.00;;;17.30;80.60;;;;;;5032640;28;20406;-75
2023/08/01 09:20:17;;;;;;;3.88;1.50;;;17.50;80.70;;;;;;5032583;28;20087;-75
2023/08/01 09:22:44;;;;;;;1.30;1.20;;;17.60;80.30;;;;;;5032429;28;20478;-77
2023/08/01 09:25:09;;;;;;;2.25;1.25;;;17.70;80.70;;;;;;5032726;28;20017;-76
2023/08/01 09:27:35;;;;;;;1.55;1.20;;;17.80;79.60;;;;;;5032727;28;20527;-77
2023/08/01 09:30:13;;;;;;;1.50;1.10;;;17.90;80.70;;;;;;5032651;28;20029;-76
2023/08/01 09:32:39;;;;;;;1.88;1.20;;;17.90;79.90;;;;;;5032635;28;20018;-75
2023/08/01 09:35:05;;;;;;;1.20;1.10;;;17.80;80.30;;;;;;5014772;28;20109;-76
2023/08/01 09:37:43;;;;;;;1.20;1.10;;;17.60;81.60;;;;;;5014951;28;20112;-74
2023/08/01 09:40:10;;;;;;;1.65;1.10;;;17.60;82.20;;;;;;5032201;28;20033;-75
2023/08/01 09:42:44;;;;;;;2.10;1.08;;;17.50;81.70;;;;;;5014956;28;20025;-76
2023/08/01 09:45:14;;;;;;;1.95;1.17;;;17.30;81.90;;;;;;5014527;28;20030;-76
2023/08/01 09:47:40;;;;;;;2.05;0.90;;;17.10;82.50;;;;;;5014419;28;20029;-78
2023/08/01 09:50:06;;;;;;;1.10;0.70;;;17.10;83.90;;;;;;5032242;28;20084;-76
2023/08/01 09:52:33;;;;;;;2.03;0.75;;;17.20;82.60;;;;;;5032439;28;20462;-77
2023/08/01 09:54:58;;;;;;;1.35;0.80;;;17.10;83.10;;;;;;5032137;28;20030;-77
2023/08/01 09:57:29;;;;;;;1.10;0.90;;;17.10;83.10;;;;;;5032773;28;20055;-76
2023/08/01 09:59:56;;;;;;;1.10;0.82;;;17.00;83.10;;;;;;5035858;28;20060;-76
2023/08/01 10:02:24;;;;;;;1.73;0.63;;;17.00;83.50;;;;;;5035675;28;20037;-75
2023/08/01 10:04:53;;;;;;;0.95;0.75;;;16.90;80.40;;;;;;5035424;28;20048;-74
2023/08/01 10:07:24;;;;;;;0.88;0.60;;;16.90;81.50;;;;;;5035726;28;20021;-77
2023/08/01 10:09:50;;;;;;;0.77;0.75;;;16.80;81.80;;;;;;5035854;28;20033;-75
2023/08/01 10:12:18;;;;;;;0.57;0.50;;;17.00;82.20;;;;;;5035566;28;20389;-74
2023/08/01 10:14:44;;;;;;;1.95;0.40;;;17.20;81.20;;;;;;5017486;28;20438;-73
2023/08/01 10:17:11;;;;;;;1.08;0.70;;;17.40;80.10;;;;;;5037489;28;20056;-74
2023/08/01 10:19:37;;;;;;;0.50;0.50;;;17.60;80.90;;;;;;5035531;28;20057;-74
2023/08/01 10:22:06;;;;;;;1.42;0.50;;;17.90;79.90;;;;;;5017635;28;20044;-74
2023/08/01 10:24:33;;;;;;;1.20;0.60;;;17.90;79.40;;;;;;5035727;28;20021;-73
2023/08/01 10:27:29;;;;;;;0.70;0.60;;;17.90;79.70;;;;;;5035237;28;20025;-73
2023/08/01 10:29:58;;;;;;;;;;;17.90;80.10;;;;;;5035427;28;20033;-73
2023/08/01 10:32:35;;;;;;;1.50;0.60;;;17.80;82.00;;;;;;5035465;28;19905;-73
2023/08/01 10:35:01;;;;;;;2.70;1.30;;;17.60;83.10;;;;;;5035450;28;20056;-73
2023/08/01 10:37:38;;;;;;;1.60;0.70;;;17.30;86.20;;;;;;5035648;28;20047;-72
2023/08/01 10:40:04;;;;;;;1.23;0.73;;;17.30;84.70;;;;;;5035453;28;20109;-73
2023/08/01 10:42:43;;;;;;;1.17;0.60;;;17.20;86.40;;;;;;5035290;28;20391;-73
2023/08/01 10:45:21;;;;;;;0.85;0.70;;;17.30;86.90;;;;;;5035397;28;20029;-73
2023/08/01 10:47:47;;;;;;;2.00;0.90;;;17.50;86.60;;;;;;5035293;28;20040;-75
2023/08/01 10:50:15;;;;;;;2.25;0.80;;;17.50;84.40;;;;;;5035486;28;20095;-76
2023/08/01 10:52:41;;;;;;;1.63;0.80;;;17.40;84.90;;;;;;5035243;28;20318;-73
2023/08/01 10:55:07;;;;;;;2.15;0.70;;;17.60;85.70;;;;;;5035223;28;20429;-75
2023/08/01 10:57:36;;;;;;;1.48;0.88;;;17.90;85.10;;;;;;5017370;28;20025;-76
2023/08/01 11:00:03;;;;;;;1.50;0.75;;;18.20;84.00;;;;;;5035175;28;20038;-74
2023/08/01 11:02:30;;;;;;;1.15;0.60;;;18.40;82.30;;;;;;5035394;28;20026;-75
2023/08/01 11:04:57;;;;;;;1.42;0.98;;;18.60;80.30;;;;;;5033780;28;20049;-73
2023/08/01 11:07:23;;;;;;;1.77;0.70;;;18.50;80.00;;;;;;5033774;28;20456;-76
2023/08/01 11:09:48;;;;;;;1.48;0.88;;;18.40;80.80;;;;;;5032789;28;20096;-75
2023/08/01 11:12:14;;;;;;;1.50;1.10;;;18.20;82.10;;;;;;5033667;28;20470;-75
2023/08/01 11:14:40;;;;;;;1.35;0.90;;;18.50;84.60;;;;;;5033419;28;20390;-76
2023/08/01 11:17:06;;;;;;;2.40;1.27;;;18.80;82.00;;;;;;5033485;28;20172;-74
2023/08/01 11:19:31;;;;;;;1.92;1.13;;;19.40;81.80;;;;;;5033465;28;20037;-75
2023/08/01 11:21:57;;;;;;;2.15;1.75;;;19.80;83.30;;;;;;5032753;28;20029;-73
2023/08/01 11:24:25;;;;;;;3.22;2.13;;;20.30;82.70;;;;;;5033155;28;20022;-75
2023/08/01 11:26:52;;;;;;;2.47;1.65;;;20.70;79.70;;;;;;5033118;28;20029;-74
2023/08/01 11:29:19;;;;;;;2.70;1.50;;;21.10;78.80;;;;;;5033314;28;20466;-74
2023/08/01 11:31:59;;;;;;;1.38;0.80;;;21.00;76.70;;;;;;5033442;28;20033;-73
2023/08/01 11:34:27;;;;;;;0.75;0.50;;;20.80;72.70;;;;;;5033336;28;20062;-75
2023/08/01 11:36:53;;;;;;;2.03;1.00;;;20.50;71.40;;;;;;5033472;28;20148;-74
2023/08/01 11:39:36;;;;;;;2.13;0.85;;;19.90;76.70;;;;;;5034182;28;20037;-74
2023/08/01 11:42:03;;;;;;;2.03;1.00;;;19.70;79.80;;;;;;5033480;28;20044;-77
2023/08/01 11:44:29;;;;;;;2.40;1.08;;;19.40;80.80;;;;;;5033273;28;20036;-74
2023/08/01 11:46:55;;;;;;;3.95;0.75;;;19.10;81.30;;;;;;5033394;28;20060;-76
2023/08/01 11:49:21;;;;;;;1.42;0.70;;;18.90;82.60;;;;;;5032605;28;20536;-77
2023/08/01 11:51:46;;;;;;;1.95;1.00;;;18.80;82.60;;;;;;5021993;28;20022;-78
2023/08/01 11:54:13;;;;;;;1.45;0.90;;;18.70;82.20;;;;;;5011975;28;20430;-74
2023/08/01 11:56:40;;;;;;;0.90;0.70;;;18.70;83.40;;;;;;5032716;28;20029;-74
2023/08/01 11:59:14;;;;;;;1.05;0.75;;;18.80;79.40;;;;;;5023751;28;20025;-76
2023/08/01 12:01:45;;;;;;;1.55;0.65;;;18.90;78.30;;;;;;5026319;28;20081;-78
2023/08/01 12:04:10;;;;;;;1.92;0.73;;;19.20;78.00;;;;;;4974262;28;1018996;-78
2023/08/01 12:06:38;;;;;;;1.83;0.55;;;19.70;74.40;;;;;;5023696;28;20034;-77
2023/08/01 12:09:10;;;;;;;1.83;0.60;;;19.70;74.60;;;;;;5022292;28;20030;-76
2023/08/01 12:11:36;;;;;;;2.15;1.13;;;20.10;72.40;;;;;;5025113;28;20025;-78
2023/08/01 12:14:03;;;;;;;3.20;0.60;;;20.50;73.50;;;;;;5022795;28;20022;-78
2023/08/01 12:16:29;;;;;;;1.63;0.70;;;21.00;72.10;;;;;;5020289;28;20478;-75
2023/08/01 12:18:56;;;;;;;1.73;0.55;;;21.20;71.50;;;;;;5027947;28;20025;-77
2023/08/01 12:21:22;;;;;;;1.10;0.63;;;21.40;66.60;;;;;;5027100;28;20124;-77
2023/08/01 12:23:47;;;;;;;1.10;0.73;;;20.90;66.30;;;;;;5024758;28;20100;-73
2023/08/01 12:26:13;;;;;;;1.60;0.70;;;20.80;65.60;;;;;;5011915;28;20493;-73
2023/08/01 12:28:38;;;;;;;0.98;0.70;;;20.80;68.00;;;;;;5023014;28;20093;-73
2023/08/01 12:31:04;;;;;;;0.90;0.60;;;20.40;67.90;;;;;;5031499;28;20136;-75
2023/08/01 12:33:30;;;;;;;0.90;0.77;;;20.30;67.20;;;;;;5033458;28;20657;-73
2023/08/01 12:35:56;;;;;;;1.38;0.80;;;20.20;68.80;;;;;;5021929;28;20022;-74
2023/08/01 12:38:21;;;;;;;2.25;0.70;;;19.90;68.00;;;;;;5010809;28;20478;-74
2023/08/01 12:40:48;;;;;;;1.25;0.70;;;19.90;68.00;;;;;;5031310;28;20033;-76
2023/08/01 12:43:14;;;;;;;0.63;0.50;;;19.90;68.20;;;;;;5033228;28;20083;-77